Time;durP1;ratioP1;P1;durP2;ratioP2;P2;SDS_P1;SDS_P2;PMS_P1;PMS_P2;Temp;Humidity;BMP_temperature;BMP_pressure;BME280_temperature;BME280_humidity;BME280_pressure;Samples;Min_cycle;Max_cycle;Signal;HPM_P1;HPM_P2
2021/03/06 00:00:06;;;;;;;5.90;3.92;;;;;;;-0.21;65.16;102041.16;5007532;28;20046;-69
2021/03/06 00:02:32;;;;;;;6.72;3.50;;;;;;;-0.24;67.66;102042.09;5006451;28;20115;-69
2021/03/06 00:04:57;;;;;;;5.53;3.53;;;;;;;-0.21;65.11;102046.34;5006058;28;20038;-69
2021/03/06 00:07:22;;;;;;;5.32;3.17;;;;;;;-0.31;65.72;102044.88;5005060;28;20329;-69
2021/03/06 00:09:48;;;;;;;5.78;3.92;;;;;;;-0.41;65.45;102041.69;5008719;28;20053;-69
2021/03/06 00:12:13;;;;;;;6.10;3.83;;;;;;;-0.55;65.67;102060.31;5007904;28;20099;-69
2021/03/06 00:14:38;;;;;;;5.55;3.10;;;;;;;-0.57;66.15;102048.22;5009631;28;20337;-68
2021/03/06 00:17:04;;;;;;;3.85;2.67;;;;;;;-0.51;65.62;102050.66;5009469;28;20061;-69
2021/03/06 00:19:29;;;;;;;5.35;3.33;;;;;;;-0.43;64.55;102049.56;5009641;28;20045;-69
2021/03/06 00:21:55;;;;;;;8.80;4.20;;;;;;;-0.30;64.20;102054.41;5010190;28;20445;-69
2021/03/06 00:24:21;;;;;;;6.93;4.15;;;;;;;-0.39;64.25;102050.31;5008991;28;22614;-69
2021/03/06 00:26:46;;;;;;;6.88;4.25;;;;;;;-0.40;64.20;102046.03;5009758;28;20034;-68
2021/03/06 00:29:12;;;;;;;6.30;3.85;;;;;;;-0.47;64.51;102042.75;5008840;28;20428;-68
2021/03/06 00:31:38;;;;;;;6.00;3.22;;;;;;;-0.53;66.13;102050.69;5009316;28;20637;-69
2021/03/06 00:34:05;;;;;;;6.45;4.10;;;;;;;-0.50;64.70;102050.63;5008526;28;20041;-68
2021/03/06 00:36:31;;;;;;;6.63;3.90;;;;;;;-0.49;64.54;102048.88;5008446;28;20042;-68
2021/03/06 00:38:56;;;;;;;5.45;3.20;;;;;;;-0.58;65.15;102047.38;5007534;28;20443;-68
2021/03/06 00:41:22;;;;;;;6.35;3.08;;;;;;;-0.54;64.51;102043.81;5008815;28;20076;-69
2021/03/06 00:43:47;;;;;;;6.63;3.95;;;;;;;-0.71;65.25;102051.22;5009021;28;20030;-68
2021/03/06 00:46:13;;;;;;;8.40;4.70;;;;;;;-0.69;65.16;102045.09;5008764;28;20037;-69
2021/03/06 00:48:38;;;;;;;6.82;4.32;;;;;;;-0.73;65.94;102053.00;5008032;28;20050;-68
2021/03/06 00:51:04;;;;;;;6.35;3.80;;;;;;;-0.79;66.03;102054.00;5009008;28;20246;-68
2021/03/06 00:53:29;;;;;;;8.15;4.75;;;;;;;-0.66;64.89;102055.38;5008421;28;20042;-68
2021/03/06 00:55:54;;;;;;;7.75;4.30;;;;;;;-0.68;65.15;102058.94;5008524;28;20516;-69
2021/03/06 00:58:20;;;;;;;7.88;4.07;;;;;;;-0.76;65.95;102051.34;5004930;28;20034;-69
2021/03/06 01:00:45;;;;;;;7.28;4.80;;;;;;;-0.76;65.50;102058.25;5007586;28;20026;-69
2021/03/06 01:03:11;;;;;;;7.55;4.70;;;;;;;-0.89;66.26;102050.81;5008657;28;20038;-69
2021/03/06 01:05:36;;;;;;;7.40;5.22;;;;;;;-1.01;66.94;102050.28;5009017;28;20038;-69
2021/03/06 01:08:05;;;;;;;8.52;5.03;;;;;;;-0.95;66.37;102043.19;5011066;28;20029;-70
2021/03/06 01:10:35;;;;;;;7.63;4.00;;;;;;;-1.09;67.16;102053.94;5012189;28;20042;-69
2021/03/06 01:13:00;;;;;;;6.93;4.30;;;;;;;-1.00;67.65;102054.56;5011478;28;20041;-69
2021/03/06 01:15:26;;;;;;;8.50;3.95;;;;;;;-1.12;67.43;102051.44;5004416;28;20041;-69
2021/03/06 01:17:51;;;;;;;6.95;4.38;;;;;;;-1.02;66.75;102054.63;5012030;28;20034;-68
2021/03/06 01:20:17;;;;;;;8.07;4.57;;;;;;;-0.98;66.51;102052.78;5011937;28;20137;-69
2021/03/06 01:22:42;;;;;;;6.35;4.25;;;;;;;-0.96;66.44;102043.22;5012146;28;20040;-69
2021/03/06 01:25:09;;;;;;;6.05;3.78;;;;;;;-0.98;66.44;102039.81;5012306;28;20076;-69
2021/03/06 01:27:34;;;;;;;6.10;4.30;;;;;;;-0.96;66.25;102045.81;5011696;28;20034;-69
2021/03/06 01:30:00;;;;;;;6.05;3.70;;;;;;;-0.97;66.35;102041.53;5012366;28;20089;-69
2021/03/06 01:32:25;;;;;;;5.28;3.72;;;;;;;-1.00;66.21;102044.19;5011563;28;20056;-69
2021/03/06 01:34:50;;;;;;;7.93;3.80;;;;;;;-0.99;66.34;102043.31;5011798;28;20025;-69
2021/03/06 01:37:16;;;;;;;6.05;4.15;;;;;;;-1.04;66.88;102038.25;5011914;28;20129;-69
2021/03/06 01:39:42;;;;;;;5.97;3.55;;;;;;;-1.03;66.23;102031.28;5011776;28;20069;-68
2021/03/06 01:42:08;;;;;;;6.28;3.83;;;;;;;-1.12;66.20;102030.66;5011985;28;20034;-69
2021/03/06 01:44:33;;;;;;;7.88;4.30;;;;;;;-1.15;66.62;102029.88;5011830;28;20033;-69
2021/03/06 01:46:59;;;;;;;6.82;4.22;;;;;;;-1.21;66.88;102028.28;5012297;28;20129;-69
2021/03/06 01:49:25;;;;;;;7.35;4.65;;;;;;;-1.25;66.81;102028.41;5012099;28;20125;-69
2021/03/06 01:51:51;;;;;;;6.15;3.80;;;;;;;-1.29;66.96;102027.63;5012154;28;20042;-69
2021/03/06 01:54:18;;;;;;;7.78;4.47;;;;;;;-1.34;67.30;102019.94;5011450;28;20236;-69
2021/03/06 01:56:43;;;;;;;7.10;4.30;;;;;;;-1.35;67.06;102022.59;5003365;28;20111;-69
2021/03/06 01:59:08;;;;;;;10.77;5.28;;;;;;;-1.41;67.24;102027.94;5008697;28;20117;-68
2021/03/06 02:01:34;;;;;;;6.53;4.05;;;;;;;-1.36;67.31;102034.72;5010019;28;20037;-69
2021/03/06 02:03:59;;;;;;;5.97;3.70;;;;;;;-1.28;66.00;102026.75;5012242;28;20049;-68
2021/03/06 02:06:25;;;;;;;6.95;4.10;;;;;;;-1.26;65.87;102024.97;5011076;28;20049;-69
2021/03/06 02:08:50;;;;;;;7.15;4.40;;;;;;;-1.15;65.80;102029.88;5011461;28;20034;-68
2021/03/06 02:11:28;;;;;;;6.32;3.70;;;;;;;-1.18;65.63;102033.41;5011838;28;20065;-69
2021/03/06 02:14:11;;;;;;;5.95;3.67;;;;;;;-1.12;65.22;102027.19;5005310;28;20087;-69
2021/03/06 02:16:46;;;;;;;8.13;4.45;;;;;;;-1.17;64.75;102036.84;5009890;28;20072;-69
2021/03/06 02:19:39;;;;;;;7.07;4.10;;;;;;;-1.21;64.85;102030.03;5009784;28;20068;-69
2021/03/06 02:22:29;;;;;;;5.18;3.92;;;;;;;-1.18;65.76;102025.63;5009763;28;20092;-71
2021/03/06 02:25:32;;;;;;;5.95;3.60;;;;;;;-1.15;64.94;102030.72;5004964;28;20084;-69
2021/03/06 02:28:02;;;;;;;5.22;3.72;;;;;;;-1.21;66.10;102025.69;5010845;28;20041;-69
2021/03/06 02:30:30;;;;;;;5.18;3.40;;;;;;;-1.20;65.42;102030.00;4991579;28;20038;-69
2021/03/06 02:32:57;;;;;;;5.28;3.53;;;;;;;-1.22;64.58;102030.91;4991856;28;20514;-69
2021/03/06 02:35:25;;;;;;;5.63;3.40;;;;;;;-1.29;64.82;102031.09;4988592;28;20491;-69
2021/03/06 02:38:09;;;;;;;5.07;3.50;;;;;;;-1.33;65.23;102039.00;4997640;28;20035;-69
2021/03/06 02:40:37;;;;;;;7.63;3.85;;;;;;;-1.36;65.23;102032.13;5009357;28;20034;-68
2021/03/06 02:43:05;;;;;;;6.60;3.60;;;;;;;-1.34;65.52;102038.13;5010936;28;20146;-69
2021/03/06 02:45:31;;;;;;;5.65;3.88;;;;;;;-1.28;65.06;102037.13;5003301;28;20064;-69
2021/03/06 02:47:57;;;;;;;7.05;4.28;;;;;;;-1.24;65.28;102033.56;5011143;28;20112;-69
2021/03/06 02:50:22;;;;;;;4.00;3.28;;;;;;;-1.31;65.44;102029.44;5010296;28;20038;-69
2021/03/06 02:52:48;;;;;;;6.63;3.72;;;;;;;-1.29;65.39;102031.09;5010997;28;20398;-69
2021/03/06 02:55:14;;;;;;;4.88;3.15;;;;;;;-1.30;65.33;102021.59;5009826;28;20037;-69
2021/03/06 02:58:17;;;;;;;7.75;3.70;;;;;;;-1.24;65.27;102027.50;5010589;28;20037;-69
2021/03/06 03:00:58;;;;;;;5.03;3.45;;;;;;;-1.27;65.22;102031.03;5005623;28;20026;-68
2021/03/06 03:03:54;;;;;;;6.40;3.97;;;;;;;-1.21;64.70;102028.28;5010566;28;20057;-68
2021/03/06 03:06:33;;;;;;;5.30;3.45;;;;;;;-1.22;64.47;102028.31;5010647;28;20040;-69
2021/03/06 03:09:08;;;;;;;5.35;3.20;;;;;;;-1.27;64.97;102030.19;5007422;28;20054;-68
2021/03/06 03:12:12;;;;;;;5.72;3.90;;;;;;;-1.28;64.66;102029.34;5010784;28;20038;-69
2021/03/06 03:14:54;;;;;;;5.70;3.78;;;;;;;-1.27;64.42;102025.84;5010018;28;21187;-69
2021/03/06 03:17:32;;;;;;;5.13;3.65;;;;;;;-1.24;64.43;102025.78;5009951;28;20568;-69
2021/03/06 03:20:02;;;;;;;4.57;3.13;;;;;;;-1.30;65.29;102020.75;5010057;28;20037;-69
2021/03/06 03:22:35;;;;;;;5.18;3.30;;;;;;;-1.34;64.73;102029.47;5010193;28;20333;-69
2021/03/06 03:25:03;;;;;;;5.40;3.50;;;;;;;-1.43;64.56;102022.81;5010380;28;20034;-69
2021/03/06 03:27:29;;;;;;;6.10;3.50;;;;;;;-1.48;64.86;102026.38;5010235;28;20050;-69
2021/03/06 03:29:56;;;;;;;5.50;3.30;;;;;;;-1.46;64.68;102022.84;5009628;28;20083;-69
2021/03/06 03:32:24;;;;;;;5.93;3.92;;;;;;;-1.45;64.70;102029.78;5009597;28;20124;-69
2021/03/06 03:34:50;;;;;;;5.43;3.72;;;;;;;-1.46;64.38;102030.63;5010091;28;20196;-69
2021/03/06 03:37:16;;;;;;;7.53;3.78;;;;;;;-1.44;64.78;102033.22;5009716;28;20111;-69
2021/03/06 03:39:41;;;;;;;4.70;3.38;;;;;;;-1.47;65.13;102031.53;5009890;28;20026;-69
2021/03/06 03:42:08;;;;;;;5.88;3.92;;;;;;;-1.37;64.24;102038.19;5009670;28;20128;-69
2021/03/06 03:44:35;;;;;;;4.57;3.38;;;;;;;-1.39;64.56;102029.59;5009224;28;20112;-69
2021/03/06 03:47:00;;;;;;;5.03;3.53;;;;;;;-1.45;65.39;102027.16;5008136;28;20037;-69
2021/03/06 03:49:27;;;;;;;5.43;3.80;;;;;;;-1.57;65.00;102032.66;5010154;28;20049;-69
2021/03/06 03:51:54;;;;;;;5.03;3.45;;;;;;;-1.57;65.62;102035.25;5010097;28;20045;-69
2021/03/06 03:54:20;;;;;;;6.97;3.85;;;;;;;-1.50;65.22;102045.44;5009397;28;20569;-69
2021/03/06 03:56:45;;;;;;;6.15;3.28;;;;;;;-1.54;65.63;102040.38;5009543;28;20065;-69
2021/03/06 03:59:10;;;;;;;4.97;3.45;;;;;;;-1.54;65.27;102043.81;5006151;28;20046;-69
2021/03/06 04:01:44;;;;;;;5.03;3.35;;;;;;;-1.50;64.73;102042.84;5009856;28;20045;-69
2021/03/06 04:04:27;;;;;;;5.95;4.00;;;;;;;-1.50;65.26;102035.06;5009895;28;20165;-69
2021/03/06 04:06:53;;;;;;;5.57;3.63;;;;;;;-1.45;64.29;102036.66;5006264;28;20076;-68
2021/03/06 04:09:19;;;;;;;4.97;3.30;;;;;;;-1.52;64.65;102043.78;5010130;28;20021;-68
2021/03/06 04:11:45;;;;;;;4.78;3.30;;;;;;;-1.58;65.00;102038.72;5006120;28;20423;-68
2021/03/06 04:14:10;;;;;;;4.65;3.10;;;;;;;-1.54;64.48;102043.81;5005682;28;20030;-68
2021/03/06 04:16:35;;;;;;;5.55;3.67;;;;;;;-1.52;64.62;102041.19;5009309;28;20032;-69
2021/03/06 04:19:01;;;;;;;5.38;3.78;;;;;;;-1.52;64.66;102047.22;5009784;28;20030;-69
2021/03/06 04:21:26;;;;;;;5.97;3.60;;;;;;;-1.52;64.64;102048.97;5009640;28;20025;-67
2021/03/06 04:23:52;;;;;;;5.35;3.22;;;;;;;-1.60;65.31;102048.28;5007966;28;20026;-69
2021/03/06 04:26:17;;;;;;;4.90;3.33;;;;;;;-1.57;64.62;102048.22;5004676;28;20088;-68
2021/03/06 04:28:42;;;;;;;5.43;3.50;;;;;;;-1.55;64.39;102044.72;5005164;28;20184;-69
2021/03/06 04:31:08;;;;;;;4.15;3.00;;;;;;;-1.55;64.40;102047.28;5005603;28;20398;-69
2021/03/06 04:33:33;;;;;;;4.07;2.95;;;;;;;-1.57;64.78;102048.22;5005809;28;20188;-68
2021/03/06 04:35:58;;;;;;;6.18;3.92;;;;;;;-1.53;64.82;102048.09;5005609;28;20468;-68
2021/03/06 04:38:24;;;;;;;5.82;3.50;;;;;;;-1.53;65.34;102048.09;5001868;28;20495;-68
2021/03/06 04:40:49;;;;;;;4.40;3.13;;;;;;;-1.55;65.71;102049.91;5007570;28;20092;-68
2021/03/06 04:43:15;;;;;;;4.28;3.30;;;;;;;-1.51;64.61;102050.66;5008955;28;20040;-68
2021/03/06 04:45:40;;;;;;;4.72;3.30;;;;;;;-1.56;64.96;102050.75;5008760;28;20514;-68
2021/03/06 04:48:06;;;;;;;5.30;3.83;;;;;;;-1.55;64.84;102041.22;5007591;28;20061;-69
2021/03/06 04:50:31;;;;;;;4.72;3.22;;;;;;;-1.56;64.67;102057.69;5009335;28;20410;-68
2021/03/06 04:52:56;;;;;;;4.60;3.40;;;;;;;-1.50;63.91;102055.81;5008805;28;20102;-68
2021/03/06 04:55:22;;;;;;;4.63;3.40;;;;;;;-1.48;63.60;102053.16;5008810;28;20041;-68
2021/03/06 04:57:47;;;;;;;4.75;3.15;;;;;;;-1.51;64.71;102054.09;5008405;28;20030;-68
2021/03/06 05:00:13;;;;;;;4.35;3.13;;;;;;;-1.46;64.29;102047.97;5006066;28;20050;-68
2021/03/06 05:02:39;;;;;;;4.03;2.70;;;;;;;-1.51;64.56;102041.13;5005471;28;20092;-68
2021/03/06 05:05:07;;;;;;;5.35;3.67;;;;;;;-1.47;63.58;102054.88;5008695;28;20036;-68
2021/03/06 05:07:34;;;;;;;5.47;3.08;;;;;;;-1.54;63.72;102051.59;5008719;28;20126;-68
2021/03/06 05:09:59;;;;;;;5.07;3.55;;;;;;;-1.52;63.77;102047.22;5008260;28;20120;-68
2021/03/06 05:12:25;;;;;;;7.22;4.00;;;;;;;-1.54;63.87;102046.41;5007942;28;20160;-69
2021/03/06 05:14:50;;;;;;;5.35;3.45;;;;;;;-1.57;63.93;102043.03;5009264;28;20423;-68
2021/03/06 05:17:15;;;;;;;6.25;3.92;;;;;;;-1.59;64.19;102040.47;5008214;28;20058;-68
2021/03/06 05:19:41;;;;;;;5.60;3.50;;;;;;;-1.64;64.70;102042.31;5008746;28;20030;-68
2021/03/06 05:22:06;;;;;;;4.53;3.60;;;;;;;-1.61;64.26;102047.44;5008918;28;20041;-69
2021/03/06 05:24:31;;;;;;;4.72;3.25;;;;;;;-1.72;64.39;102050.28;5008285;28;20040;-68
2021/03/06 05:27:03;;;;;;;5.10;3.53;;;;;;;-1.64;64.21;102052.69;5008477;28;20537;-68
2021/03/06 05:29:33;;;;;;;5.55;3.50;;;;;;;-1.64;64.90;102062.22;5008961;28;20037;-68
2021/03/06 05:32:00;;;;;;;5.03;3.75;;;;;;;-1.65;64.39;102055.31;5007508;28;20030;-68
2021/03/06 05:34:25;;;;;;;7.53;3.80;;;;;;;-1.62;63.90;102050.06;5005199;28;20049;-69
2021/03/06 05:36:51;;;;;;;5.18;3.45;;;;;;;-1.64;64.53;102063.06;5008305;28;20030;-68
2021/03/06 05:39:17;;;;;;;5.28;3.70;;;;;;;-1.64;64.08;102062.22;5008456;28;20041;-68
2021/03/06 05:41:43;;;;;;;4.20;3.35;;;;;;;-1.68;65.87;102061.44;5008946;28;20113;-68
2021/03/06 05:44:10;;;;;;;5.78;3.67;;;;;;;-1.65;64.29;102066.53;5007872;28;20148;-67
2021/03/06 05:46:37;;;;;;;5.43;3.78;;;;;;;-1.62;64.13;102065.63;5007943;28;20414;-69
2021/03/06 05:49:02;;;;;;;6.30;3.70;;;;;;;-1.69;64.23;102064.06;5009147;28;20064;-68
2021/03/06 05:51:31;;;;;;;3.92;2.90;;;;;;;-1.73;65.76;102061.53;5008511;28;20062;-68
2021/03/06 05:53:57;;;;;;;3.80;2.83;;;;;;;-1.73;67.46;102074.50;5010469;28;20053;-68
2021/03/06 05:56:23;;;;;;;4.93;3.28;;;;;;;-1.76;69.05;102071.13;5011671;28;20026;-68
2021/03/06 05:58:49;;;;;;;5.30;3.60;;;;;;;-1.73;66.68;102061.53;5011679;28;20033;-68
2021/03/06 06:01:15;;;;;;;4.40;3.10;;;;;;;-1.80;67.49;102065.16;5012392;28;20045;-68
2021/03/06 06:03:41;;;;;;;6.18;3.78;;;;;;;-1.77;67.02;102070.25;5011641;28;20376;-68
2021/03/06 06:06:08;;;;;;;5.40;3.42;;;;;;;-1.87;67.30;102063.59;5011618;28;20034;-69
2021/03/06 06:08:34;;;;;;;5.60;3.50;;;;;;;-2.02;67.73;102057.00;5011368;28;20053;-68
2021/03/06 06:11:01;;;;;;;4.00;2.70;;;;;;;-2.02;70.30;102063.94;5011687;28;20034;-68
2021/03/06 06:13:26;;;;;;;5.60;3.78;;;;;;;-1.92;71.25;102068.88;5010608;28;20053;-69
2021/03/06 06:15:53;;;;;;;5.20;3.15;;;;;;;-1.93;67.42;102068.94;5012187;28;20029;-68
2021/03/06 06:18:18;;;;;;;5.00;3.30;;;;;;;-1.97;67.61;102062.94;5011157;28;20072;-68
2021/03/06 06:20:44;;;;;;;4.32;3.20;;;;;;;-2.03;68.36;102070.00;5010996;28;20061;-68
2021/03/06 06:23:14;;;;;;;5.15;3.28;;;;;;;-2.11;68.67;102074.50;5010524;28;20128;-68
2021/03/06 06:25:40;;;;;;;4.97;3.70;;;;;;;-2.05;68.00;102077.81;5011344;28;20030;-69
2021/03/06 06:28:07;;;;;;;5.78;3.90;;;;;;;-2.19;69.66;102072.06;5010827;28;20037;-69
2021/03/06 06:30:33;;;;;;;5.45;4.13;;;;;;;-2.19;70.33;102077.25;5010653;28;20494;-68
2021/03/06 06:32:58;;;;;;;5.38;4.07;;;;;;;-2.02;69.87;102082.09;5010920;28;20034;-68
2021/03/06 06:35:24;;;;;;;5.38;3.67;;;;;;;-1.67;68.90;102080.44;5009344;28;20038;-68
2021/03/06 06:38:04;;;;;;;5.05;3.20;;;;;;;-1.07;69.84;102083.31;5011195;28;20044;-68
2021/03/06 06:40:32;;;;;;;4.77;3.10;;;;;;;-0.13;67.18;102085.09;5008476;28;20380;-68
2021/03/06 06:42:59;;;;;;;3.83;2.70;;;;;;;0.60;63.26;102087.22;5011282;28;20311;-68
2021/03/06 06:45:25;;;;;;;5.13;2.90;;;;;;;0.48;66.19;102091.06;5010553;28;20033;-69
2021/03/06 06:47:52;;;;;;;5.78;3.67;;;;;;;0.37;66.22;102104.38;5010166;28;20038;-69
2021/03/06 06:50:32;;;;;;;5.43;3.67;;;;;;;0.09;64.31;102106.97;5010772;28;20030;-69
2021/03/06 06:52:58;;;;;;;4.43;2.70;;;;;;;-0.12;63.52;102099.78;5010961;28;20030;-69
2021/03/06 06:55:37;;;;;;;3.58;2.67;;;;;;;0.26;64.21;102105.63;5011195;28;20034;-69
2021/03/06 06:58:03;;;;;;;4.07;2.67;;;;;;;0.97;63.59;102102.47;5010081;28;20118;-69
2021/03/06 07:00:30;;;;;;;4.32;2.63;;;;;;;1.72;64.75;102100.75;5009357;28;20180;-69
2021/03/06 07:03:01;;;;;;;5.65;2.60;;;;;;;2.38;63.54;102100.88;5010792;28;20526;-69
2021/03/06 07:05:31;;;;;;;;;;;;;;;3.11;56.20;102092.66;5010078;28;20153;-69
2021/03/06 07:07:58;;;;;;;3.90;2.47;;;;;;;3.88;61.82;102104.97;5010369;28;20282;-69
2021/03/06 07:10:31;;;;;;;4.18;2.58;;;;;;;4.12;55.74;102102.16;5010180;28;20053;-69
2021/03/06 07:13:04;;;;;;;6.00;2.90;;;;;;;4.24;59.36;102110.28;5010789;28;20446;-68
2021/03/06 07:15:31;;;;;;;6.50;3.30;;;;;;;4.59;51.29;102106.91;5009291;28;20454;-69
2021/03/06 07:18:05;;;;;;;5.57;3.17;;;;;;;5.45;52.82;102108.69;5010108;28;20438;-69
2021/03/06 07:20:38;;;;;;;3.60;2.70;;;;;;;5.59;52.03;102109.75;5010266;28;20034;-69
2021/03/06 07:23:24;;;;;;;5.45;3.67;;;;;;;6.63;51.23;102119.03;5009129;28;20026;-69
2021/03/06 07:25:54;;;;;;;4.97;3.00;;;;;;;6.79;49.62;102115.44;5005022;28;20034;-69
2021/03/06 07:28:20;;;;;;;4.20;2.40;;;;;;;7.32;48.17;102118.47;5009505;28;20410;-69
2021/03/06 07:30:47;;;;;;;5.28;2.95;;;;;;;7.17;46.67;102120.22;5008736;28;20036;-69
2021/03/06 07:33:16;;;;;;;3.08;2.03;;;;;;;7.45;48.33;102124.69;5010246;28;20084;-69
2021/03/06 07:35:42;;;;;;;5.35;3.28;;;;;;;7.38;43.96;102130.41;5009655;28;20088;-69
2021/03/06 07:38:09;;;;;;;6.40;3.88;;;;;;;6.37;45.19;102127.41;5009269;28;20498;-68
2021/03/06 07:40:38;;;;;;;5.20;3.60;;;;;;;5.40;44.87;102130.84;5009928;28;20068;-69
2021/03/06 07:43:13;;;;;;;4.93;3.55;;;;;;;4.45;46.46;102126.75;5009558;28;20038;-69
2021/03/06 07:45:45;;;;;;;5.22;3.90;;;;;;;3.65;48.10;102124.34;5010182;28;20522;-68
2021/03/06 07:48:16;;;;;;;5.00;3.70;;;;;;;3.19;49.57;102124.56;5009088;28;20072;-69
2021/03/06 07:50:44;;;;;;;4.65;3.40;;;;;;;2.65;51.63;102130.28;5011714;28;20058;-69
2021/03/06 07:53:12;;;;;;;5.57;2.95;;;;;;;2.55;52.72;102127.16;5010287;28;20117;-69
2021/03/06 07:55:38;;;;;;;4.85;3.63;;;;;;;2.51;52.25;102128.22;5009872;28;20584;-69
2021/03/06 07:58:15;;;;;;;6.05;3.53;;;;;;;2.43;52.89;102136.34;5009639;28;20518;-69
2021/03/06 08:00:45;;;;;;;5.45;3.40;;;;;;;2.43;53.12;102143.31;5009962;28;20030;-69
2021/03/06 08:03:30;;;;;;;5.57;3.60;;;;;;;2.38;52.48;102140.03;5010254;28;20092;-69
2021/03/06 08:06:02;;;;;;;5.10;3.20;;;;;;;2.37;51.81;102133.13;5006121;28;20045;-69
2021/03/06 08:08:34;;;;;;;5.00;3.40;;;;;;;2.25;52.24;102137.91;5008591;28;20034;-69
2021/03/06 08:11:10;;;;;;;6.80;4.32;;;;;;;2.47;51.50;102134.44;5009784;28;20038;-69
2021/03/06 08:13:37;;;;;;;5.50;3.20;;;;;;;2.40;51.58;102140.81;5009068;28;20034;-69
2021/03/06 08:16:24;;;;;;;5.45;3.35;;;;;;;2.31;51.63;102139.41;5008951;28;20029;-69
2021/03/06 08:18:50;;;;;;;5.20;3.35;;;;;;;2.36;51.77;102131.41;5009487;28;20395;-69
2021/03/06 08:21:34;;;;;;;4.65;3.20;;;;;;;2.44;51.87;102132.81;5009271;28;20030;-68
2021/03/06 08:24:11;;;;;;;7.07;3.58;;;;;;;2.54;50.83;102139.38;5009624;28;20061;-69
2021/03/06 08:26:38;;;;;;;4.68;3.33;;;;;;;2.53;51.25;102139.44;5004090;28;20034;-69
2021/03/06 08:29:28;;;;;;;6.00;3.97;;;;;;;2.76;50.33;102136.78;4999447;28;20449;-69
2021/03/06 08:32:17;;;;;;;5.03;3.30;;;;;;;3.40;49.07;102135.84;5002882;28;20045;-69
2021/03/06 08:34:46;;;;;;;5.32;2.88;;;;;;;4.69;47.47;102134.34;5009643;28;20296;-70
2021/03/06 08:37:15;;;;;;;5.65;3.50;;;;;;;6.15;44.70;102137.44;5009408;28;20030;-69
2021/03/06 08:40:08;;;;;;;5.15;3.33;;;;;;;7.52;41.79;102137.50;5009070;28;20125;-70
2021/03/06 08:42:37;;;;;;;6.20;3.28;;;;;;;8.35;40.64;102132.38;5005242;28;20085;-70
2021/03/06 08:45:12;;;;;;;5.50;3.55;;;;;;;9.34;38.78;102136.41;5009496;28;20068;-70
2021/03/06 08:47:40;;;;;;;5.20;2.95;;;;;;;9.71;37.82;102130.38;5008796;28;20140;-69
2021/03/06 08:50:09;;;;;;;4.18;2.88;;;;;;;10.17;35.78;102125.31;5008264;28;20236;-70
2021/03/06 08:52:35;;;;;;;4.75;2.67;;;;;;;11.05;34.10;102135.66;5008902;28;20049;-70
2021/03/06 08:55:02;;;;;;;5.40;3.25;;;;;;;10.58;31.98;102131.25;5007682;28;20036;-70
2021/03/06 08:57:32;;;;;;;3.60;2.00;;;;;;;11.21;33.21;102132.69;5008140;28;20069;-70
2021/03/06 09:00:00;;;;;;;4.70;2.72;;;;;;;12.26;33.25;102130.72;5009100;28;20038;-70
2021/03/06 09:02:31;;;;;;;3.67;2.50;;;;;;;12.71;29.13;102124.47;5006941;28;20046;-70
2021/03/06 09:05:06;;;;;;;;;;;;;;;11.82;28.02;102119.19;5009964;28;20037;-70
2021/03/06 09:07:32;;;;;;;4.65;2.60;;;;;;;11.99;30.20;102123.19;5008006;28;19921;-70
2021/03/06 09:10:26;;;;;;;2.92;2.00;;;;;;;12.82;27.71;102126.22;5002970;28;20042;-70
2021/03/06 09:12:54;;;;;;;3.47;2.20;;;;;;;11.63;30.00;102121.56;4988671;28;20125;-70
2021/03/06 09:15:33;;;;;;;3.30;2.03;;;;;;;12.07;28.20;102117.25;4989137;28;20042;-70
2021/03/06 09:17:58;;;;;;;4.03;2.60;;;;;;;13.71;25.52;102118.72;4993081;28;20045;-70
2021/03/06 09:20:26;;;;;;;3.78;2.28;;;;;;;14.35;24.74;102117.47;4989439;28;20030;-69
2021/03/06 09:22:52;;;;;;;4.60;2.25;;;;;;;14.13;24.66;102132.69;4990047;28;20034;-70
2021/03/06 09:25:35;;;;;;;3.47;2.05;;;;;;;14.95;20.96;102125.41;4989474;28;20558;-69
2021/03/06 09:28:03;;;;;;;3.22;1.60;;;;;;;14.47;22.86;102111.09;4985612;28;20078;-69
2021/03/06 09:30:28;;;;;;;2.42;1.55;;;;;;;14.65;22.56;102113.91;4990462;28;20042;-69
2021/03/06 09:32:55;;;;;;;2.92;1.80;;;;;;;14.62;21.62;102109.72;4995526;28;20075;-68
2021/03/06 09:35:21;;;;;;;2.38;1.45;;;;;;;14.77;23.21;102111.97;5003143;28;20088;-69
2021/03/06 09:37:46;;;;;;;2.75;1.83;;;;;;;15.06;22.15;102103.94;5011250;28;20133;-69
2021/03/06 09:40:19;;;;;;;2.92;1.80;;;;;;;14.27;20.03;102101.38;5011951;28;20121;-69
2021/03/06 09:42:51;;;;;;;3.90;2.05;;;;;;;13.90;20.88;102104.66;5004162;28;20042;-69
2021/03/06 09:45:16;;;;;;;;;;;;;;;14.33;21.13;102103.50;5012073;28;20042;-69
2021/03/06 09:47:42;;;;;;;3.60;1.80;;;;;;;14.17;21.48;102099.53;5008754;28;19940;-68
2021/03/06 09:50:08;;;;;;;3.00;1.80;;;;;;;13.73;21.76;102091.00;5006871;28;20092;-69
2021/03/06 09:52:34;;;;;;;3.33;1.67;;;;;;;12.82;21.98;102083.72;5012186;28;20061;-68
2021/03/06 09:55:00;;;;;;;3.35;1.80;;;;;;;12.35;24.49;102091.13;5008132;28;20042;-69
2021/03/06 09:57:26;;;;;;;2.90;1.60;;;;;;;12.15;23.95;102079.50;5012018;28;20083;-69
2021/03/06 09:59:52;;;;;;;3.47;2.03;;;;;;;11.82;23.66;102082.06;5011574;28;20040;-69
2021/03/06 10:02:22;;;;;;;3.13;2.13;;;;;;;11.64;24.92;102084.34;5010849;28;20126;-69
2021/03/06 10:04:48;;;;;;;3.17;1.65;;;;;;;11.14;25.73;102077.69;5009269;28;20026;-69
2021/03/06 10:07:13;;;;;;;2.75;1.70;;;;;;;10.54;27.02;102079.53;5010854;28;20034;-69
2021/03/06 10:09:40;;;;;;;3.08;1.70;;;;;;;10.44;25.85;102082.03;5007816;28;20044;-68
2021/03/06 10:12:07;;;;;;;3.17;1.80;;;;;;;10.28;26.70;102078.78;5011934;28;20544;-70
2021/03/06 10:14:33;;;;;;;3.13;1.80;;;;;;;9.63;27.88;102079.84;5012102;28;20464;-69
2021/03/06 10:17:05;;;;;;;5.00;2.50;;;;;;;10.02;26.88;102080.66;5010229;28;20053;-69
2021/03/06 10:19:43;;;;;;;3.47;2.10;;;;;;;9.71;27.39;102078.38;5009761;28;20552;-68
2021/03/06 10:22:11;;;;;;;3.65;2.05;;;;;;;9.80;27.22;102087.47;5010514;28;20034;-69
2021/03/06 10:24:50;;;;;;;3.65;1.70;;;;;;;9.34;27.46;102080.97;5003214;28;20124;-69
2021/03/06 10:27:16;;;;;;;4.03;2.63;;;;;;;9.20;27.34;102088.09;5009335;28;20038;-68
2021/03/06 10:29:42;;;;;;;3.45;2.10;;;;;;;8.08;29.19;102085.75;5011758;28;20034;-69
2021/03/06 10:32:07;;;;;;;3.38;1.60;;;;;;;7.77;30.58;102082.41;5012295;28;20033;-70
2021/03/06 10:34:35;;;;;;;3.70;2.50;;;;;;;7.67;29.78;102081.25;5012007;28;20113;-69
2021/03/06 10:37:10;;;;;;;3.13;2.05;;;;;;;8.02;29.07;102076.44;5011688;28;20372;-69
2021/03/06 10:39:57;;;;;;;4.85;2.10;;;;;;;7.37;29.59;102076.09;5010863;28;20390;-70
2021/03/06 10:42:24;;;;;;;4.03;2.45;;;;;;;7.61;29.47;102077.22;5011448;28;20117;-69
2021/03/06 10:44:50;;;;;;;5.25;2.00;;;;;;;7.45;29.50;102068.56;5011934;28;20029;-69
2021/03/06 10:47:16;;;;;;;3.55;1.98;;;;;;;7.70;28.73;102070.56;5011252;28;20483;-69
2021/03/06 10:49:45;;;;;;;2.72;1.90;;;;;;;7.54;29.33;102075.06;5011439;28;20084;-70
2021/03/06 10:52:28;;;;;;;3.95;2.10;;;;;;;7.22;29.64;102067.31;5011459;28;20360;-70
2021/03/06 10:54:57;;;;;;;4.43;2.03;;;;;;;7.52;28.93;102072.53;5011760;28;20034;-69
2021/03/06 10:57:22;;;;;;;3.65;2.03;;;;;;;7.53;28.93;102068.09;5011304;28;20582;-69
2021/03/06 10:59:48;;;;;;;3.13;1.70;;;;;;;7.57;29.26;102066.97;5011082;28;20109;-69
2021/03/06 11:02:26;;;;;;;3.10;1.65;;;;;;;7.50;29.98;102063.03;5008828;28;20030;-69
2021/03/06 11:04:52;;;;;;;3.13;2.33;;;;;;;7.53;29.83;102061.06;5010239;28;20065;-69
2021/03/06 11:07:27;;;;;;;7.15;2.83;;;;;;;7.45;30.70;102058.03;5010760;28;20446;-69
2021/03/06 11:09:56;;;;;;;3.38;2.20;;;;;;;7.43;31.82;102058.13;5008443;28;20117;-69
2021/03/06 11:12:27;;;;;;;3.00;1.90;;;;;;;7.28;30.37;102053.81;5010376;28;20036;-70
2021/03/06 11:15:06;;;;;;;;;;;;;;;7.23;31.06;102054.09;5010927;28;20042;-70
2021/03/06 11:17:32;;;;;;;2.92;2.00;;;;;;;7.48;28.12;102049.13;5009929;28;19917;-69
2021/03/06 11:19:57;;;;;;;3.38;1.70;;;;;;;7.07;28.83;102040.16;5010664;28;20434;-70
2021/03/06 11:22:22;;;;;;;4.18;2.20;;;;;;;7.32;29.16;102052.69;5010191;28;20065;-68
2021/03/06 11:24:48;;;;;;;2.65;1.80;;;;;;;7.20;28.23;102043.75;5010693;28;20331;-69
2021/03/06 11:27:13;;;;;;;2.95;1.80;;;;;;;7.27;29.45;102038.97;5010292;28;20030;-70
2021/03/06 11:29:38;;;;;;;3.92;1.95;;;;;;;7.37;28.88;102036.63;5010480;28;20521;-69
2021/03/06 11:32:04;;;;;;;3.47;1.67;;;;;;;7.42;28.61;102038.03;5010130;28;20033;-68
2021/03/06 11:34:29;;;;;;;2.78;1.50;;;;;;;7.28;27.66;102031.91;5007917;28;20499;-70
2021/03/06 11:36:54;;;;;;;3.40;2.30;;;;;;;7.41;28.58;102028.47;5010186;28;20049;-69